KRRT

Warroad International Memorial Airport

Warroad, Minnesota, USA
METAR KRRT 190535Z AUTO 00000KT 10SM SCT049 07/06 A3007 RMK AO2
Observed Flight Rules
Sep-19 @ 05:35 UTC (7 minutes ago) Visual Flight Rules
Visibility Clouds
10 miles
  • Scattered at 4,900' AGL
Temperatures Readings
Current 7°C / 45°F
Dewpoint 6°C / 43°F
Humidity 93%
Altimeter 30.07" Hg
Pressure 1018 hPa
Elevation 327
METAR KRRT 190535Z AUTO 00000KT 10SM SCT049 07/06 A3007 RMK AO2
Observed Flight Rules
Sep-19 @ 05:35 UTC
(7 minutes ago)
VFR
Clouds
  • Scattered at 4,900' AGL
Temperature Dewpoint
7°C / 45°F 6°C / 43°F
Humidity Altimeter Pressure
93% 30.07" Hg 1018 hPa